EZY26Z EGAC-EGGD
Flight info
| Callsign | EZY26Z |
|---|---|
| Flight time | 0h 48m |
| Altitude | 29000 |
| Route | DUFFY L10 RINGA Q39 BABGU DCT ETIGA DCT INKOB Q39 NOMSU UQ4 WAL N862 KARNO DCT ALHUP DCT LUCSA N862 WEVBE |
| Aircraft | A320/M-SDE2E3FGHIJ1RWXYZ/LB1 |
Departure
| Time | 2026-04-26 19:36 |
|---|---|
| Airport | George Best Belfast City Airport (EGAC) |
Arrival
| Time | 2026-04-26 20:24 |
|---|---|
| Airport | Bristol Airport (EGGD) |
| Time | Latitude | Longitude | Altitude | Speed | Heading |
|---|---|---|---|---|---|
| 2026-04-26 19:16 | 54.61542 | -5.87090 | 22 ft | 0 kts | 161° |
| 2026-04-26 19:29 | 54.61558 | -5.87100 | 23 ft | 4 kts | 161° |
| 2026-04-26 19:29 | 54.61568 | -5.87106 | 24 ft | 0 kts | 161° |
| 2026-04-26 19:29 | 54.61569 | -5.87106 | 24 ft | 2 kts | 161° |
| 2026-04-26 19:30 | 54.61582 | -5.87114 | 25 ft | 2 kts | 165° |
| 2026-04-26 19:30 | 54.61595 | -5.87118 | 25 ft | 2 kts | 185° |
| 2026-04-26 19:30 | 54.61612 | -5.87116 | 25 ft | 2 kts | 209° |
| 2026-04-26 19:30 | 54.61621 | -5.87107 | 24 ft | 2 kts | 202° |
| 2026-04-26 19:31 | 54.61628 | -5.87103 | 24 ft | 0 kts | 200° |
| 2026-04-26 19:32 | 54.61625 | -5.87106 | 24 ft | 4 kts | 206° |
| 2026-04-26 19:32 | 54.61585 | -5.87155 | 24 ft | 8 kts | 217° |
| 2026-04-26 19:32 | 54.61544 | -5.87209 | 22 ft | 8 kts | 217° |
| 2026-04-26 19:33 | 54.61487 | -5.87278 | 21 ft | 10 kts | 214° |
| 2026-04-26 19:33 | 54.61433 | -5.87343 | 21 ft | 10 kts | 215° |
| 2026-04-26 19:33 | 54.61394 | -5.87426 | 21 ft | 8 kts | 227° |
| 2026-04-26 19:33 | 54.61318 | -5.87525 | 19 ft | 14 kts | 214° |
| 2026-04-26 19:34 | 54.61219 | -5.87645 | 16 ft | 19 kts | 215° |
| 2026-04-26 19:34 | 54.61121 | -5.87762 | 18 ft | 15 kts | 214° |
| 2026-04-26 19:34 | 54.61086 | -5.87901 | 18 ft | 13 kts | 287° |
| 2026-04-26 19:34 | 54.61136 | -5.88010 | 18 ft | 11 kts | 326° |
| 2026-04-26 19:35 | 54.61198 | -5.87986 | 19 ft | 10 kts | 29° |
| 2026-04-26 19:35 | 54.61283 | -5.87881 | 14 ft | 32 kts | 34° |
| 2026-04-26 19:35 | 54.61728 | -5.87344 | 21 ft | 118 kts | 34° |
| 2026-04-26 19:35 | 54.62542 | -5.86394 | 400 ft | 150 kts | 32° |
| 2026-04-26 19:36 | 54.63432 | -5.85364 | 1164 ft | 163 kts | 33° |
| 2026-04-26 19:36 | 54.64076 | -5.84593 | 1403 ft | 179 kts | 34° |
| 2026-04-26 19:36 | 54.65348 | -5.82433 | 1940 ft | 213 kts | 67° |
| 2026-04-26 19:36 | 54.65399 | -5.79763 | 2382 ft | 241 kts | 108° |
| 2026-04-26 19:37 | 54.64371 | -5.77360 | 2907 ft | 262 kts | 143° |
| 2026-04-26 19:37 | 54.62763 | -5.75777 | 3746 ft | 267 kts | 158° |
| 2026-04-26 19:37 | 54.61038 | -5.74563 | 4686 ft | 270 kts | 161° |
| 2026-04-26 19:37 | 54.59282 | -5.73391 | 5563 ft | 273 kts | 161° |
| 2026-04-26 19:38 | 54.57506 | -5.72135 | 6500 ft | 276 kts | 159° |
| 2026-04-26 19:38 | 54.55765 | -5.70807 | 7358 ft | 279 kts | 158° |
| 2026-04-26 19:38 | 54.54028 | -5.69401 | 8152 ft | 283 kts | 156° |
| 2026-04-26 19:38 | 54.52548 | -5.68157 | 8805 ft | 288 kts | 155° |
| 2026-04-26 19:39 | 54.50743 | -5.66605 | 9607 ft | 293 kts | 155° |
| 2026-04-26 19:39 | 54.49045 | -5.65129 | 10326 ft | 298 kts | 155° |
| 2026-04-26 19:39 | 54.47167 | -5.63493 | 10709 ft | 317 kts | 155° |
| 2026-04-26 19:39 | 54.45159 | -5.61740 | 11249 ft | 327 kts | 155° |
| 2026-04-26 19:40 | 54.43097 | -5.59943 | 11988 ft | 331 kts | 155° |
| 2026-04-26 19:40 | 54.41084 | -5.58019 | 12727 ft | 336 kts | 147° |
| 2026-04-26 19:40 | 54.39292 | -5.55394 | 13487 ft | 341 kts | 134° |
| 2026-04-26 19:40 | 54.37821 | -5.52118 | 14221 ft | 345 kts | 125° |
| 2026-04-26 19:41 | 54.36475 | -5.48754 | 14846 ft | 348 kts | 125° |
| 2026-04-26 19:41 | 54.35089 | -5.45315 | 15473 ft | 352 kts | 125° |
| 2026-04-26 19:41 | 54.33677 | -5.41837 | 16083 ft | 356 kts | 125° |
| 2026-04-26 19:41 | 54.32718 | -5.39488 | 16487 ft | 359 kts | 126° |
| 2026-04-26 19:42 | 54.30801 | -5.34808 | 17272 ft | 365 kts | 126° |
| 2026-04-26 19:42 | 54.29517 | -5.31680 | 17805 ft | 367 kts | 126° |
| 2026-04-26 19:42 | 54.29221 | -5.30959 | 17922 ft | 368 kts | 125° |
| 2026-04-26 19:43 | 54.28520 | -5.29239 | 18216 ft | 370 kts | 125° |
| 2026-04-26 19:43 | 54.27016 | -5.25653 | 18810 ft | 373 kts | 127° |
| 2026-04-26 19:43 | 54.25410 | -5.22133 | 19337 ft | 376 kts | 129° |
| 2026-04-26 19:43 | 54.23716 | -5.18618 | 19893 ft | 378 kts | 130° |
| 2026-04-26 19:44 | 54.22014 | -5.15173 | 20431 ft | 381 kts | 131° |
| 2026-04-26 19:44 | 54.20296 | -5.11712 | 20968 ft | 384 kts | 131° |
| 2026-04-26 19:44 | 54.18601 | -5.08272 | 21494 ft | 386 kts | 130° |
| 2026-04-26 19:44 | 54.16869 | -5.04732 | 22021 ft | 389 kts | 130° |
| 2026-04-26 19:45 | 54.15138 | -5.01171 | 22524 ft | 391 kts | 130° |
| 2026-04-26 19:45 | 54.13398 | -4.97570 | 23040 ft | 394 kts | 130° |
| 2026-04-26 19:45 | 54.11646 | -4.93942 | 23532 ft | 397 kts | 130° |
| 2026-04-26 19:45 | 54.09880 | -4.90290 | 23989 ft | 400 kts | 130° |
| 2026-04-26 19:46 | 54.08105 | -4.86633 | 24398 ft | 402 kts | 130° |
| 2026-04-26 19:46 | 54.06338 | -4.83008 | 24819 ft | 404 kts | 130° |
| 2026-04-26 19:46 | 54.04539 | -4.79321 | 25230 ft | 406 kts | 131° |
| 2026-04-26 19:46 | 54.02767 | -4.75579 | 25638 ft | 408 kts | 129° |
| 2026-04-26 19:47 | 54.01030 | -4.71727 | 26032 ft | 411 kts | 129° |
| 2026-04-26 19:47 | 53.99871 | -4.69088 | 26291 ft | 412 kts | 128° |
| 2026-04-26 19:47 | 53.97604 | -4.63880 | 26818 ft | 415 kts | 129° |
| 2026-04-26 19:47 | 53.95879 | -4.59946 | 27203 ft | 417 kts | 129° |
| 2026-04-26 19:48 | 53.94134 | -4.56006 | 27582 ft | 419 kts | 129° |
| 2026-04-26 19:48 | 53.92368 | -4.52043 | 27967 ft | 421 kts | 130° |
| 2026-04-26 19:48 | 53.90589 | -4.48079 | 28339 ft | 422 kts | 130° |
| 2026-04-26 19:48 | 53.88804 | -4.44119 | 28783 ft | 422 kts | 130° |
| 2026-04-26 19:49 | 53.87026 | -4.40184 | 29173 ft | 424 kts | 130° |
| 2026-04-26 19:49 | 53.85289 | -4.36199 | 29285 ft | 423 kts | 128° |
| 2026-04-26 19:49 | 53.83640 | -4.32213 | 29291 ft | 408 kts | 127° |
| 2026-04-26 19:49 | 53.82459 | -4.29265 | 29289 ft | 395 kts | 127° |
| 2026-04-26 19:50 | 53.81039 | -4.25674 | 29293 ft | 381 kts | 127° |
| 2026-04-26 19:50 | 53.79561 | -4.21951 | 29291 ft | 376 kts | 127° |
| 2026-04-26 19:50 | 53.76618 | -4.14694 | 29294 ft | 374 kts | 128° |
| 2026-04-26 19:51 | 53.73637 | -4.07486 | 29300 ft | 373 kts | 128° |
| 2026-04-26 19:51 | 53.70680 | -4.00365 | 29296 ft | 373 kts | 128° |
| 2026-04-26 19:52 | 53.67693 | -3.93177 | 29288 ft | 373 kts | 129° |
| 2026-04-26 19:52 | 53.64719 | -3.86017 | 29281 ft | 373 kts | 129° |
| 2026-04-26 19:53 | 53.61738 | -3.78848 | 29284 ft | 373 kts | 129° |
| 2026-04-26 19:53 | 53.58747 | -3.71698 | 29287 ft | 373 kts | 129° |
| 2026-04-26 19:54 | 53.55755 | -3.64572 | 29288 ft | 373 kts | 129° |
| 2026-04-26 19:54 | 53.52754 | -3.57437 | 29281 ft | 373 kts | 129° |
| 2026-04-26 19:55 | 53.49746 | -3.50310 | 29283 ft | 374 kts | 129° |
| 2026-04-26 19:55 | 53.46810 | -3.43074 | 29284 ft | 378 kts | 122° |
| 2026-04-26 19:56 | 53.44823 | -3.35508 | 29288 ft | 380 kts | 117° |
| 2026-04-26 19:57 | 53.42945 | -3.28114 | 29292 ft | 380 kts | 117° |
| 2026-04-26 19:57 | 53.40845 | -3.19982 | 29289 ft | 379 kts | 121° |
| 2026-04-26 19:58 | 53.39452 | -3.16255 | 29290 ft | 373 kts | 133° |
| 2026-04-26 19:58 | 53.37687 | -3.13123 | 29290 ft | 367 kts | 144° |
| 2026-04-26 19:58 | 53.35634 | -3.10665 | 29292 ft | 361 kts | 155° |
| 2026-04-26 19:58 | 53.33419 | -3.08821 | 29290 ft | 359 kts | 159° |
| 2026-04-26 19:59 | 53.29637 | -3.05809 | 29279 ft | 360 kts | 159° |
| 2026-04-26 19:59 | 53.24373 | -3.01576 | 29279 ft | 361 kts | 159° |
| 2026-04-26 20:00 | 53.20582 | -2.98545 | 29270 ft | 361 kts | 159° |
| 2026-04-26 20:00 | 53.16070 | -2.94954 | 29290 ft | 361 kts | 159° |
| 2026-04-26 20:01 | 53.11526 | -2.91347 | 29296 ft | 361 kts | 159° |
| 2026-04-26 20:01 | 53.09233 | -2.89668 | 29301 ft | 357 kts | 166° |
| 2026-04-26 20:02 | 53.06845 | -2.88714 | 29299 ft | 351 kts | 178° |
| 2026-04-26 20:02 | 53.04416 | -2.88551 | 29298 ft | 346 kts | 187° |
| 2026-04-26 20:02 | 53.00423 | -2.88917 | 29296 ft | 346 kts | 187° |
| 2026-04-26 20:03 | 52.94877 | -2.89378 | 29281 ft | 346 kts | 186° |
| 2026-04-26 20:03 | 52.90065 | -2.89780 | 29291 ft | 345 kts | 187° |
| 2026-04-26 20:04 | 52.85448 | -2.90777 | 29299 ft | 343 kts | 191° |
| 2026-04-26 20:04 | 52.80697 | -2.91897 | 29304 ft | 353 kts | 191° |
| 2026-04-26 20:05 | 52.78215 | -2.92486 | 29307 ft | 365 kts | 191° |
| 2026-04-26 20:05 | 52.75695 | -2.93080 | 28977 ft | 364 kts | 191° |
| 2026-04-26 20:05 | 52.73197 | -2.93661 | 28112 ft | 360 kts | 191° |
| 2026-04-26 20:05 | 52.70707 | -2.94162 | 27251 ft | 358 kts | 186° |
| 2026-04-26 20:06 | 52.68265 | -2.94340 | 26804 ft | 345 kts | 186° |
| 2026-04-26 20:06 | 52.65907 | -2.94527 | 26385 ft | 333 kts | 186° |
| 2026-04-26 20:06 | 52.63632 | -2.94718 | 25967 ft | 322 kts | 186° |
| 2026-04-26 20:06 | 52.61395 | -2.94909 | 25556 ft | 323 kts | 186° |
| 2026-04-26 20:07 | 52.59142 | -2.95103 | 25132 ft | 324 kts | 186° |
| 2026-04-26 20:07 | 52.56891 | -2.95297 | 24690 ft | 324 kts | 186° |
| 2026-04-26 20:07 | 52.54672 | -2.95487 | 24260 ft | 324 kts | 186° |
| 2026-04-26 20:07 | 52.52412 | -2.95678 | 23808 ft | 325 kts | 186° |
| 2026-04-26 20:08 | 52.50153 | -2.95867 | 23316 ft | 325 kts | 186° |
| 2026-04-26 20:08 | 52.47904 | -2.96054 | 22874 ft | 323 kts | 186° |
| 2026-04-26 20:08 | 52.45663 | -2.96234 | 22451 ft | 321 kts | 186° |
| 2026-04-26 20:08 | 52.43434 | -2.96411 | 22029 ft | 320 kts | 186° |
| 2026-04-26 20:09 | 52.41210 | -2.96593 | 21609 ft | 319 kts | 186° |
| 2026-04-26 20:09 | 52.38994 | -2.96776 | 21192 ft | 319 kts | 186° |
| 2026-04-26 20:09 | 52.36767 | -2.96960 | 20772 ft | 319 kts | 186° |
| 2026-04-26 20:09 | 52.34550 | -2.97141 | 20360 ft | 319 kts | 186° |
| 2026-04-26 20:10 | 52.32340 | -2.97322 | 19948 ft | 319 kts | 186° |
| 2026-04-26 20:10 | 52.30123 | -2.97504 | 19530 ft | 319 kts | 186° |
| 2026-04-26 20:10 | 52.27920 | -2.97687 | 19126 ft | 320 kts | 186° |
| 2026-04-26 20:10 | 52.25706 | -2.97870 | 18709 ft | 316 kts | 186° |
| 2026-04-26 20:11 | 52.23508 | -2.98048 | 18252 ft | 316 kts | 185° |
| 2026-04-26 20:11 | 52.21317 | -2.98223 | 17849 ft | 315 kts | 185° |
| 2026-04-26 20:11 | 52.19128 | -2.98398 | 17446 ft | 314 kts | 186° |
| 2026-04-26 20:12 | 52.14780 | -2.98754 | 16664 ft | 313 kts | 186° |
| 2026-04-26 20:12 | 52.12593 | -2.98929 | 16264 ft | 312 kts | 186° |
| 2026-04-26 20:12 | 52.10440 | -2.99104 | 16110 ft | 308 kts | 186° |
| 2026-04-26 20:12 | 52.08305 | -2.99277 | 16040 ft | 307 kts | 186° |
| 2026-04-26 20:13 | 52.06168 | -2.99448 | 15924 ft | 306 kts | 186° |
| 2026-04-26 20:13 | 52.04073 | -2.99613 | 15805 ft | 306 kts | 186° |
| 2026-04-26 20:13 | 52.01952 | -2.99783 | 15687 ft | 305 kts | 186° |
| 2026-04-26 20:13 | 51.99833 | -2.99954 | 15557 ft | 304 kts | 186° |
| 2026-04-26 20:14 | 51.97710 | -3.00127 | 15442 ft | 304 kts | 186° |
| 2026-04-26 20:14 | 51.95562 | -3.00139 | 15318 ft | 307 kts | 177° |
| 2026-04-26 20:14 | 51.93456 | -2.99383 | 14934 ft | 313 kts | 163° |
| 2026-04-26 20:14 | 51.91443 | -2.98157 | 14394 ft | 310 kts | 163° |
| 2026-04-26 20:15 | 51.89439 | -2.96939 | 13866 ft | 307 kts | 163° |
| 2026-04-26 20:15 | 51.87448 | -2.95736 | 13347 ft | 304 kts | 163° |
| 2026-04-26 20:15 | 51.85472 | -2.94549 | 12858 ft | 301 kts | 163° |
| 2026-04-26 20:15 | 51.83508 | -2.93375 | 12374 ft | 301 kts | 163° |
| 2026-04-26 20:16 | 51.81536 | -2.92204 | 11865 ft | 304 kts | 163° |
| 2026-04-26 20:16 | 51.79534 | -2.91014 | 11382 ft | 307 kts | 162° |
| 2026-04-26 20:16 | 51.77522 | -2.89814 | 10884 ft | 310 kts | 162° |
| 2026-04-26 20:16 | 51.75486 | -2.88601 | 10389 ft | 312 kts | 161° |
| 2026-04-26 20:17 | 51.73486 | -2.87412 | 10173 ft | 305 kts | 161° |
| 2026-04-26 20:17 | 51.71625 | -2.86520 | 10003 ft | 294 kts | 172° |
| 2026-04-26 20:17 | 51.69780 | -2.86384 | 9709 ft | 288 kts | 187° |
| 2026-04-26 20:17 | 51.68457 | -2.86690 | 9440 ft | 287 kts | 191° |
| 2026-04-26 20:18 | 51.65826 | -2.87373 | 8905 ft | 285 kts | 190° |
| 2026-04-26 20:18 | 51.63875 | -2.87874 | 8514 ft | 284 kts | 190° |
| 2026-04-26 20:18 | 51.61921 | -2.88369 | 8117 ft | 283 kts | 189° |
| 2026-04-26 20:18 | 51.59975 | -2.88859 | 7720 ft | 282 kts | 189° |
| 2026-04-26 20:19 | 51.58048 | -2.89348 | 7327 ft | 281 kts | 189° |
| 2026-04-26 20:19 | 51.56120 | -2.89840 | 6940 ft | 280 kts | 189° |
| 2026-04-26 20:19 | 51.54193 | -2.90331 | 6534 ft | 278 kts | 189° |
| 2026-04-26 20:19 | 51.52287 | -2.90815 | 6116 ft | 277 kts | 189° |
| 2026-04-26 20:20 | 51.50385 | -2.91298 | 5702 ft | 276 kts | 189° |
| 2026-04-26 20:20 | 51.48477 | -2.91783 | 4968 ft | 287 kts | 188° |
| 2026-04-26 20:20 | 51.46445 | -2.92299 | 4165 ft | 297 kts | 188° |
| 2026-04-26 20:20 | 51.44421 | -2.92811 | 3686 ft | 296 kts | 188° |
| 2026-04-26 20:21 | 51.42420 | -2.93314 | 3520 ft | 283 kts | 187° |
| 2026-04-26 20:21 | 51.40525 | -2.93793 | 3389 ft | 269 kts | 187° |
| 2026-04-26 20:21 | 51.38722 | -2.93857 | 3341 ft | 249 kts | 162° |
| 2026-04-26 20:21 | 51.37341 | -2.92460 | 3172 ft | 233 kts | 126° |
| 2026-04-26 20:22 | 51.36846 | -2.90067 | 2802 ft | 228 kts | 85° |
| 2026-04-26 20:22 | 51.37370 | -2.87742 | 2447 ft | 220 kts | 60° |
| 2026-04-26 20:22 | 51.37872 | -2.85524 | 2175 ft | 208 kts | 88° |
| 2026-04-26 20:22 | 51.37835 | -2.83319 | 1920 ft | 185 kts | 89° |
| 2026-04-26 20:23 | 51.37894 | -2.81419 | 1665 ft | 163 kts | 87° |
| 2026-04-26 20:23 | 51.37961 | -2.79701 | 1444 ft | 148 kts | 87° |
| 2026-04-26 20:23 | 51.38023 | -2.78114 | 1256 ft | 139 kts | 88° |
| 2026-04-26 20:23 | 51.38103 | -2.76613 | 1046 ft | 136 kts | 86° |
| 2026-04-26 20:24 | 51.38156 | -2.75078 | 848 ft | 135 kts | 88° |
| 2026-04-26 20:24 | 51.38209 | -2.73593 | 686 ft | 133 kts | 88° |
| 2026-04-26 20:24 | 51.38258 | -2.72168 | 622 ft | 117 kts | 89° |
| 2026-04-26 20:24 | 51.38286 | -2.71292 | 604 ft | 36 kts | 85° |
| 2026-04-26 20:25 | 51.38308 | -2.70885 | 618 ft | 27 kts | 85° |
| 2026-04-26 20:25 | 51.38311 | -2.70823 | 612 ft | 1 kts | 86° |
| 2026-04-26 20:25 | 51.38350 | -2.70753 | 612 ft | 7 kts | 22° |
| 2026-04-26 20:25 | 51.38380 | -2.70740 | 615 ft | 4 kts | 14° |
| 2026-04-26 20:26 | 51.38429 | -2.70716 | 614 ft | 10 kts | 6° |
| 2026-04-26 20:26 | 51.38471 | -2.70771 | 614 ft | 7 kts | 287° |
| 2026-04-26 20:26 | 51.38471 | -2.70829 | 613 ft | 3 kts | 264° |
| 2026-04-26 20:26 | 51.38467 | -2.70891 | 620 ft | 16 kts | 266° |
| 2026-04-26 20:27 | 51.38465 | -2.70963 | 614 ft | 4 kts | 268° |
| 2026-04-26 20:27 | 51.38472 | -2.70989 | 625 ft | 1 kts | 300° |
| 2026-04-26 20:27 | 51.38489 | -2.71012 | 618 ft | 7 kts | 334° |
| 2026-04-26 20:27 | 51.38507 | -2.71017 | 624 ft | 1 kts | 355° |
| 2026-04-26 20:28 | 51.38523 | -2.71015 | 615 ft | 0 kts | 358° |
| 2026-04-26 20:28 | 51.38525 | -2.71015 | 614 ft | 0 kts | 358° |